Time;durP1;ratioP1;P1;durP2;ratioP2;P2;SDS_P1;SDS_P2;PMS_P1;PMS_P2;Temp;Humidity;BMP_temperature;BMP_pressure;BME280_temperature;BME280_humidity;BME280_pressure;Samples;Min_cycle;Max_cycle;Signal;HPM_P1;HPM_P2
2023/01/30 00:00:55;;;;;;;;;41.40;34.00;;;;;6.75;63.43;102573.34;2024942;28;3583613;-84
2023/01/30 00:02:06;;;;;;;;;39.50;34.00;;;;;6.72;63.31;102571.56;1991096;28;2853362;-84
2023/01/30 00:03:19;;;;;;;;;37.20;32.20;;;;;6.71;63.43;102572.44;2003735;28;3581486;-84
2023/01/30 00:04:32;;;;;;;;;41.00;33.00;;;;;6.70;63.41;102575.91;2009793;28;2858574;-85
2023/01/30 00:05:42;;;;;;;;;43.50;34.50;;;;;6.68;63.27;102580.22;1980318;28;2838810;-85
2023/01/30 00:06:54;;;;;;;;;41.67;33.67;;;;;6.71;63.42;102587.22;2022575;28;3600246;-85
2023/01/30 00:08:06;;;;;;;;;40.67;34.67;;;;;6.69;63.30;102575.88;1998238;28;3576315;-84
2023/01/30 00:09:18;;;;;;;;;42.60;34.40;;;;;6.67;63.12;102570.63;2027903;28;3605418;-85
2023/01/30 00:10:30;;;;;;;;;41.80;36.20;;;;;6.66;62.85;102574.09;1991258;28;3596132;-85
2023/01/30 00:11:42;;;;;;;;;40.60;35.60;;;;;6.64;62.78;102573.22;2022476;28;3584650;-85
2023/01/30 00:12:54;;;;;;;;;46.20;34.60;;;;;6.66;63.29;102583.69;2016271;28;3600207;-84
2023/01/30 00:14:07;;;;;;;;;37.60;32.20;;;;;6.65;63.58;102585.41;1997088;28;3614778;-84
2023/01/30 00:15:18;;;;;;;;;41.00;35.50;;;;;6.62;63.34;102580.13;1978646;28;2847109;-84
2023/01/30 00:16:30;;;;;;;;;39.40;34.80;;;;;6.62;63.19;102588.84;1998272;28;3600207;-84
2023/01/30 00:17:42;;;;;;;;;40.00;33.67;;;;;6.60;63.39;102581.84;1997781;28;3589822;-85
2023/01/30 00:18:54;;;;;;;;;42.60;35.80;;;;;6.58;63.91;102579.22;2019255;28;3571034;-84
2023/01/30 00:20:06;;;;;;;;;45.80;36.00;;;;;6.61;63.48;102581.00;2011044;28;3591922;-85
2023/01/30 00:21:18;;;;;;;;;46.60;36.00;;;;;6.58;63.60;102567.88;2016088;28;3605410;-84
2023/01/30 00:22:29;;;;;;;;;44.80;34.60;;;;;6.59;63.29;102572.28;2001048;28;3593954;-84
2023/01/30 00:23:42;;;;;;;;;42.80;34.80;;;;;6.59;63.38;102564.44;2004405;28;3589818;-84
2023/01/30 00:24:53;;;;;;;;;38.00;34.00;;;;;6.58;63.59;102567.88;1987030;28;2822146;-84
2023/01/30 00:26:06;;;;;;;;;42.33;33.00;;;;;6.55;63.51;102563.50;1999771;28;3621073;-84
2023/01/30 00:27:19;;;;;;;;;41.50;36.00;;;;;6.57;63.20;102564.38;1985331;28;2839474;-84
2023/01/30 00:28:30;;;;;;;;;40.00;35.50;;;;;6.55;63.54;102562.63;2009061;28;2850268;-84
2023/01/30 00:29:42;;;;;;;;;43.00;35.00;;;;;6.56;63.49;102559.16;1994176;28;3574195;-84
2023/01/30 00:30:54;;;;;;;;;43.80;34.80;;;;;6.57;63.57;102559.16;2025696;28;3599190;-85
2023/01/30 00:32:05;;;;;;;;;49.00;36.00;;;;;6.56;63.52;102554.81;1994210;28;2875224;-84
2023/01/30 00:33:18;;;;;;;;;42.60;34.60;;;;;6.57;63.91;102556.56;2011244;28;3582491;-84
2023/01/30 00:34:29;;;;;;;;;40.50;34.50;;;;;6.56;64.03;102548.72;1994244;28;2851278;-84
2023/01/30 00:35:45;;;;;;;;;44.20;35.00;;;;;6.53;64.03;102545.19;2012489;28;3606827;-84
2023/01/30 00:36:56;;;;;;;;;36.50;33.00;;;;;6.55;63.63;102546.94;1983894;28;2842942;-85
2023/01/30 00:38:09;;;;;;;;;44.80;34.60;;;;;6.54;63.47;102546.09;2006336;28;3598168;-84
2023/01/30 00:39:20;;;;;;;;;43.67;35.00;;;;;6.55;63.54;102547.81;1981771;28;3599213;-84
2023/01/30 00:40:32;;;;;;;;;31.80;27.40;;;;;6.55;63.62;102536.47;2002831;28;3596073;-84
2023/01/30 00:47:55;;;;;;;;;44.33;34.00;;;;;6.47;64.21;102532.03;1988861;28;3610117;-84
2023/01/30 00:49:06;;;;;;;;;40.50;34.50;;;;;6.46;63.68;102526.81;1978065;28;2861730;-84
2023/01/30 00:50:18;;;;;;;;;46.40;35.80;;;;;6.45;64.10;102531.16;1985279;28;3601233;-84
2023/01/30 00:51:30;;;;;;;;;42.80;33.80;;;;;6.47;63.75;102531.19;2019765;28;3611672;-84
2023/01/30 00:52:42;;;;;;;;;39.00;33.00;;;;;6.48;64.07;102531.19;1999089;28;3578380;-84
2023/01/30 00:53:54;;;;;;;;;46.67;35.00;;;;;6.48;64.22;102527.69;2021544;28;3613808;-84
2023/01/30 00:55:06;;;;;;;;;41.20;35.00;;;;;6.48;64.27;102519.84;2009894;28;3591164;-84
2023/01/30 00:56:17;;;;;;;;;38.00;33.00;;;;;6.50;63.96;102519.03;1984287;28;2851614;-85
2023/01/30 00:57:29;;;;;;;;;43.67;31.67;;;;;6.49;64.16;102514.69;2000516;28;3612802;-84
2023/01/30 00:58:41;;;;;;;;;42.40;34.60;;;;;6.51;63.90;102512.97;2010598;28;3581840;-84
2023/01/30 00:59:53;;;;;;;;;46.60;36.20;;;;;6.49;64.25;102511.19;2033248;28;3601253;-84
2023/01/30 01:01:05;;;;;;;;;45.00;35.00;;;;;6.50;63.68;102513.81;2006693;28;3597113;-84
2023/01/30 01:02:17;;;;;;;;;44.40;33.20;;;;;6.52;63.98;102505.97;1993747;28;3609583;-84
2023/01/30 01:03:29;;;;;;;;;45.40;35.20;;;;;6.51;63.98;102501.63;2001721;28;3585601;-84
2023/01/30 01:04:43;;;;;;;;;40.80;35.00;;;;;6.53;63.79;102502.50;2017065;28;3584592;-84
2023/01/30 01:05:54;;;;;;;;;41.50;33.50;;;;;6.50;63.93;102497.25;2009811;28;2822120;-84
2023/01/30 01:07:05;;;;;;;;;34.20;30.60;;;;;6.52;64.26;102496.41;1988274;28;2865865;-84
2023/01/30 01:08:17;;;;;;;;;44.40;34.40;;;;;6.52;64.19;102493.78;2026514;28;3610608;-84
2023/01/30 01:09:29;;;;;;;;;38.33;32.67;;;;;6.56;64.22;102496.44;2019142;28;3598186;-85
2023/01/30 01:10:41;;;;;;;;;39.00;34.33;;;;;6.53;64.06;102499.91;1983499;28;3583585;-84
2023/01/30 01:11:53;;;;;;;;;41.00;32.80;;;;;6.55;64.15;102506.03;2014575;28;3595024;-84
2023/01/30 01:13:05;;;;;;;;;42.00;35.60;;;;;6.50;63.77;102498.13;2000680;28;3579359;-85
2023/01/30 01:14:16;;;;;;;;;37.00;32.50;;;;;6.52;63.91;102496.41;2002036;28;2858571;-84
2023/01/30 01:15:29;;;;;;;;;46.00;35.40;;;;;6.51;63.76;102499.91;2005332;28;3594297;-85
2023/01/30 01:16:39;;;;;;;;;39.00;34.00;;;;;6.51;63.87;102499.91;1985733;28;2850245;-84
2023/01/30 01:17:52;;;;;;;;;43.80;34.40;;;;;6.55;63.96;102505.13;1995595;28;3608549;-84
2023/01/30 01:19:04;;;;;;;;;33.67;27.67;;;;;6.52;63.94;102499.03;1982156;28;3598183;-84
2023/01/30 01:20:15;;;;;;;;;44.00;37.00;;;;;6.52;64.42;102496.41;1988010;28;2846476;-85
2023/01/30 01:21:26;;;;;;;;;37.00;32.50;;;;;6.54;64.08;102491.22;1986684;28;2869026;-84
2023/01/30 01:22:37;;;;;;;;;40.50;31.00;;;;;6.56;64.10;102486.00;1974609;28;2866205;-84
2023/01/30 01:23:53;;;;;;;;;39.80;35.40;;;;;6.53;64.21;102481.63;1996659;28;3596069;-84
2023/01/30 01:25:05;;;;;;;;;38.00;36.00;;;;;6.52;63.82;102483.34;1999289;28;2858606;-84
2023/01/30 01:26:16;;;;;;;;;44.00;35.00;;;;;6.53;64.16;102482.50;1977314;28;2847139;-84
2023/01/30 01:27:28;;;;;;;;;42.00;35.20;;;;;6.56;63.81;102480.78;2008821;28;3585637;-84
2023/01/30 01:28:39;;;;;;;;;42.50;35.00;;;;;6.53;63.88;102472.03;2009108;28;2842981;-85
2023/01/30 01:29:51;;;;;;;;;36.00;33.67;;;;;6.55;64.01;102479.00;2005014;28;3591898;-84
2023/01/30 01:31:08;;;;;;;;;37.20;30.80;;;;;6.55;64.08;102479.00;2017785;28;3594406;-84
2023/01/30 01:32:19;;;;;;;;;42.00;35.50;;;;;6.56;64.03;102476.44;1970065;28;2844015;-84
2023/01/30 01:33:30;;;;;;;;;37.00;32.50;;;;;6.56;64.13;102472.94;2000330;28;2861766;-85
2023/01/30 01:34:42;;;;;;;;;34.00;30.00;;;;;6.57;64.11;102467.72;1998931;28;3604445;-85
2023/01/30 01:35:55;;;;;;;;;41.40;33.60;;;;;6.57;64.40;102472.94;2017797;28;3591894;-84
2023/01/30 01:37:06;;;;;;;;;35.00;29.50;;;;;6.56;63.89;102463.38;1974901;28;2496604;-84
2023/01/30 01:38:17;;;;;;;;;35.50;29.00;;;;;6.56;64.07;102470.31;1988543;28;2865882;-85
2023/01/30 01:41:00;;;;;;;;;44.00;35.40;;;;;6.56;64.13;102462.50;2003489;28;3583959;-84
2023/01/30 01:41:08;;;;;;;;;38.00;33.00;;;;;6.55;63.80;102463.34;2008588;28;2866946;-85
2023/01/30 01:42:19;;;;;;;;;38.50;27.00;;;;;6.57;63.73;102472.09;1976313;28;2876294;-84
2023/01/30 01:43:35;;;;;;;;;29.00;29.00;;;;;6.54;64.16;102467.72;1994332;28;3589807;-84
2023/01/30 01:45:13;;;;;;;;;41.50;30.00;;;;;6.59;63.95;102483.44;1999609;28;2881856;-84
2023/01/30 01:46:34;;;;;;;;;44.00;34.50;;;;;6.55;63.83;102472.06;1974095;28;2860724;-85
2023/01/30 01:47:55;;;;;;;;;41.50;34.00;;;;;6.57;63.73;102474.69;1978901;28;2843999;-84
2023/01/30 01:49:15;;;;;;;;;48.33;36.00;;;;;6.56;64.32;102468.59;2007808;28;3587743;-84
2023/01/30 01:50:46;;;;;;;;;35.50;33.00;;;;;6.56;63.81;102472.94;1990099;28;2856578;-84
2023/01/30 01:52:12;;;;;;;;;38.50;33.00;;;;;6.59;64.32;102468.59;1983580;28;2856562;-85
2023/01/30 01:53:29;;;;;;;;;41.67;35.00;;;;;6.58;63.95;102460.75;1985037;28;3582547;-84
2023/01/30 01:54:44;;;;;;;;;40.33;31.67;;;;;6.62;64.24;102462.53;1998993;28;3616983;-85
2023/01/30 01:55:58;;;;;;;;;43.50;34.50;;;;;6.60;63.98;102461.66;1978220;28;2862776;-84
2023/01/30 01:57:19;;;;;;;;;41.50;33.50;;;;;6.61;63.51;102466.91;1985019;28;2849231;-84
2023/01/30 01:58:36;;;;;;;;;42.00;32.50;;;;;6.62;63.67;102467.78;1984352;28;2863795;-85
2023/01/30 02:00:12;;;;;;;;;44.50;34.00;;;;;6.59;63.94;102468.59;1975860;28;2851306;-85
2023/01/30 02:01:23;;;;;;;;;36.50;30.50;;;;;6.60;63.95;102470.38;1980882;28;2863802;-84
2023/01/30 02:02:35;;;;;;;;;35.40;32.60;;;;;6.60;63.83;102472.09;1987157;28;3585656;-85
2023/01/30 02:03:52;;;;;;;;;39.00;32.20;;;;;6.61;63.88;102474.75;2027667;28;3597063;-84
2023/01/30 02:05:05;;;;;;;;;44.00;36.00;;;;;6.62;63.72;102470.38;1992961;28;2842985;-84
2023/01/30 02:06:17;;;;;;;;;39.00;35.50;;;;;6.63;63.70;102482.59;2006775;28;2837758;-84
2023/01/30 02:07:38;;;;;;;;;47.33;35.00;;;;;6.62;63.50;102475.59;1975969;28;3600226;-84
2023/01/30 02:08:57;;;;;;;;;43.00;33.50;;;;;6.63;63.91;102474.75;2003036;28;2870403;-84
2023/01/30 02:10:12;;;;;;;;;42.00;33.00;;;;;6.64;63.96;102473.91;1991180;28;2853386;-84
2023/01/30 02:11:42;;;;;;;;;36.67;33.00;;;;;6.64;63.37;102466.09;1985080;28;3588848;-85
2023/01/30 02:12:53;;;;;;;;;41.50;33.00;;;;;6.58;63.83;102463.38;1986504;28;2877379;-85
2023/01/30 02:14:05;;;;;;;;;41.60;35.40;;;;;6.57;63.89;102474.69;2000134;28;3588766;-84
2023/01/30 02:15:18;;;;;;;;;39.33;33.33;;;;;6.59;63.72;102475.59;2005372;28;3586679;-84
2023/01/30 02:16:29;;;;;;;;;40.00;34.50;;;;;6.55;63.68;102469.44;2007927;28;2866370;-85
2023/01/30 02:17:41;;;;;;;;;37.20;27.20;;;;;6.56;63.71;102465.09;1999332;28;3622142;-85
2023/01/30 02:18:54;;;;;;;;;39.40;30.00;;;;;6.57;63.40;102472.94;2010330;28;3614798;-84
2023/01/30 02:20:14;;;;;;;;;45.33;35.67;;;;;6.58;63.84;102469.50;1983709;28;3593979;-84
2023/01/30 02:21:59;;;;;;;;;37.67;32.33;;;;;6.61;63.59;102468.66;1982627;28;3605806;-84
2023/01/30 02:23:29;;;;;;;;;44.67;30.33;;;;;6.60;63.74;102473.00;1982097;28;3626258;-84
2023/01/30 02:25:17;;;;;;;;;28.00;23.67;;;;;6.61;63.41;102463.41;1988675;28;3575256;-84
2023/01/30 02:27:06;;;;;;;;;35.33;31.67;;;;;6.57;63.64;102462.50;2006518;28;3577326;-84
2023/01/30 02:28:39;;;;;;;;;34.00;31.00;;;;;6.58;63.52;102463.38;2011193;28;2853385;-85
2023/01/30 02:30:08;;;;;;;;;36.00;29.00;;;;;6.56;63.35;102457.25;1991481;28;2823174;-84
2023/01/30 02:31:43;;;;;;;;;31.33;29.67;;;;;6.58;63.53;102450.31;2010365;28;3591894;-84
2023/01/30 02:33:08;;;;;;;;;38.00;33.00;;;;;6.57;63.79;102445.97;2015652;28;2846094;-84
2023/01/30 02:34:49;;;;;;;;;42.67;34.67;;;;;6.52;63.79;102438.94;1991349;28;3570036;-84
2023/01/30 02:36:33;;;;;;;;;41.00;34.00;;;;;6.55;63.70;102463.34;2005718;28;2867961;-84
2023/01/30 02:38:00;;;;;;;;;40.00;34.00;;;;;6.56;63.18;102458.16;1990654;28;3590959;-84
2023/01/30 02:39:28;;;;;;;;;41.50;36.00;;;;;6.57;63.47;102461.63;2017366;28;2861738;-85
2023/01/30 02:40:39;;;;;;;;;34.50;30.00;;;;;6.56;63.23;102458.16;1984960;28;2848189;-84
2023/01/30 02:42:04;;;;;;;;;34.67;30.33;;;;;6.56;63.65;102449.41;1997864;28;3594220;-84
2023/01/30 02:43:22;;;;;;;;;35.00;29.00;;;;;6.57;63.31;102446.81;2012081;28;2871128;-85
2023/01/30 02:44:48;;;;;;;;;40.00;35.00;;;;;6.56;63.45;102444.19;1985836;28;2836788;-85
2023/01/30 02:46:08;;;;;;;;;39.00;32.50;;;;;6.57;63.48;102438.13;1992900;28;2847132;-84
2023/01/30 02:47:59;;;;;;;;;41.00;33.67;;;;;6.58;63.26;102442.47;1983952;28;3606466;-84
2023/01/30 02:49:19;;;;;;;;;42.50;34.00;;;;;6.57;63.15;102449.44;1975582;28;2840898;-85
2023/01/30 02:50:36;;;;;;;;;43.00;33.00;;;;;6.58;63.50;102447.69;1993131;28;2840871;-84
2023/01/30 02:51:49;;;;;;;;;35.00;31.00;;;;;6.56;63.39;102445.09;1993474;28;2853421;-84
2023/01/30 02:53:04;;;;;;;;;32.33;26.00;;;;;6.54;63.22;102438.97;1991783;28;3590188;-84
2023/01/30 02:54:15;;;;;;;;;45.00;35.00;;;;;6.53;63.33;102445.03;2017193;28;2839876;-84
2023/01/30 02:55:28;;;;;;;;;35.00;28.00;;;;;6.52;63.26;102444.16;1987566;28;2870051;-84
2023/01/30 02:56:58;;;;;;;;;44.50;35.00;;;;;6.51;63.12;102445.03;1977719;28;2846105;-84
2023/01/30 02:58:09;;;;;;;;;35.50;30.50;;;;;6.51;63.29;102458.09;1985494;28;2855800;-84
2023/01/30 02:59:27;;;;;;;;;37.67;34.00;;;;;6.53;63.57;102460.72;1992853;28;3590845;-84
2023/01/30 03:01:02;;;;;;;;;38.00;33.00;;;;;6.52;63.61;102448.50;1991076;28;3567939;-84
2023/01/30 03:02:28;;;;;;;;;35.00;32.00;;;;;6.51;63.34;102458.09;2014833;28;3591926;-85
2023/01/30 03:03:59;;;;;;;;;36.00;33.50;;;;;6.53;63.12;102445.91;2009746;28;2831499;-84
2023/01/30 03:05:13;;;;;;;;;41.50;34.50;;;;;6.55;63.46;102447.66;2008795;28;2850278;-84
2023/01/30 03:06:54;;;;;;;;;44.50;34.50;;;;;6.53;63.15;102442.41;1983977;28;2878512;-85
2023/01/30 03:08:14;;;;;;;;;38.33;33.00;;;;;6.51;63.69;102447.66;1985668;28;3602359;-84
2023/01/30 03:09:42;;;;;;;;;36.00;30.50;;;;;6.52;63.50;102451.09;1984955;28;2870583;-85
2023/01/30 03:10:53;;;;;;;;;34.00;32.00;;;;;6.55;63.54;102447.66;1994870;28;2862785;-85
2023/01/30 03:12:16;;;;;;;;;33.40;31.80;;;;;6.55;63.31;102460.72;1995960;28;3605431;-85
2023/01/30 03:13:39;;;;;;;;;33.67;27.33;;;;;6.51;63.26;102458.09;2008333;28;3616898;-85
2023/01/30 03:15:00;;;;;;;;;34.00;30.00;;;;;6.52;63.37;102459.81;1984091;28;2861715;-85
2023/01/30 03:16:20;;;;;;;;;36.00;32.00;;;;;6.54;63.19;102454.66;1986315;28;2861032;-85
2023/01/30 03:17:31;;;;;;;;;44.00;34.00;;;;;6.52;63.57;102451.09;1994385;28;2835670;-84
2023/01/30 03:18:44;;;;;;;;;41.33;33.67;;;;;6.51;62.93;102445.03;1985168;28;3577287;-84
2023/01/30 03:19:55;;;;;;;;;37.50;34.00;;;;;6.51;63.07;102445.03;2002336;28;2837754;-84
2023/01/30 03:21:07;;;;;;;;;36.80;31.60;;;;;6.55;63.41;102448.53;1981248;28;3601237;-85
2023/01/30 03:22:19;;;;;;;;;32.00;30.00;;;;;6.55;63.11;102448.53;1979666;28;2862716;-85
2023/01/30 03:23:30;;;;;;;;;49.00;36.50;;;;;6.54;63.08;102454.66;1984085;28;2860630;-84
2023/01/30 03:24:42;;;;;;;;;41.60;31.60;;;;;6.55;63.16;102453.75;1994322;28;3610903;-84
2023/01/30 03:25:54;;;;;;;;;50.20;37.40;;;;;6.57;63.29;102459.88;1986410;28;3611681;-84
2023/01/30 03:27:09;;;;;;;;;42.33;35.33;;;;;6.55;63.21;102451.16;1992168;28;3583952;-84
2023/01/30 03:28:20;;;;;;;;;32.50;25.00;;;;;6.58;63.33;102458.16;2002608;28;2854428;-83
2023/01/30 03:29:32;;;;;;;;;36.00;29.33;;;;;6.58;62.99;102460.75;1981939;28;3594006;-85
2023/01/30 03:30:44;;;;;;;;;41.40;33.00;;;;;6.58;62.76;102458.16;1993927;28;3559604;-85
2023/01/30 03:31:56;;;;;;;;;37.60;30.40;;;;;6.58;63.63;102452.94;2024975;28;3601276;-85
2023/01/30 03:33:08;;;;;;;;;41.40;33.20;;;;;6.58;63.38;102453.81;1990733;28;3594990;-85
2023/01/30 03:34:20;;;;;;;;;35.40;30.60;;;;;6.58;62.70;102450.31;2010108;28;3600255;-84
2023/01/30 03:35:32;;;;;;;;;34.40;30.20;;;;;6.60;63.36;102444.25;1994813;28;3589038;-84
2023/01/30 03:36:45;;;;;;;;;28.33;25.67;;;;;6.59;63.39;102452.06;1981477;28;3585676;-84
2023/01/30 03:38:18;;;;;;;;;42.50;35.00;;;;;6.60;62.93;102451.19;2001749;28;2848210;-84
2023/01/30 03:39:31;;;;;;;;;41.00;33.50;;;;;6.57;63.36;102445.97;1985082;28;2840883;-85
2023/01/30 03:40:41;;;;;;;;;43.00;34.50;;;;;6.58;63.63;102443.34;1984942;28;2859632;-85
2023/01/30 03:41:53;;;;;;;;;41.67;34.67;;;;;6.62;63.19;102454.69;1997529;28;3570391;-84
2023/01/30 03:43:06;;;;;;;;;38.40;32.40;;;;;6.61;63.59;102445.13;2022007;28;3591876;-85
2023/01/30 03:44:17;;;;;;;;;42.50;35.00;;;;;6.59;63.74;102442.47;1985581;28;2840161;-85
2023/01/30 03:45:31;;;;;;;;;36.00;27.60;;;;;6.61;63.99;102453.84;1992284;28;3619433;-85
2023/01/30 03:46:42;;;;;;;;;35.00;29.00;;;;;6.62;63.64;102454.69;1980365;28;2861670;-85
2023/01/30 03:47:54;;;;;;;;;36.80;31.40;;;;;6.64;64.11;102453.88;2002579;28;3613761;-85
2023/01/30 03:49:08;;;;;;;;;40.00;32.67;;;;;6.64;63.82;102458.25;1999501;28;3626297;-85
2023/01/30 03:50:18;;;;;;;;;30.50;30.50;;;;;6.62;63.96;102450.38;1978057;28;2855485;-85
2023/01/30 03:51:30;;;;;;;;;41.33;35.33;;;;;6.63;64.07;102441.69;1997257;28;3573110;-85
2023/01/30 03:52:42;;;;;;;;;35.40;32.80;;;;;6.62;64.36;102426.84;2026490;28;3589347;-85
2023/01/30 03:53:54;;;;;;;;;37.60;32.40;;;;;6.66;63.98;102435.59;2003678;28;3589808;-85
2023/01/30 03:55:07;;;;;;;;;41.80;32.80;;;;;6.68;64.27;102433.00;1994259;28;3602370;-85
2023/01/30 03:56:18;;;;;;;;;40.00;32.80;;;;;6.66;64.02;102430.38;1987856;28;3607490;-85
2023/01/30 03:57:30;;;;;;;;;38.33;32.67;;;;;6.67;64.01;102428.66;1997119;28;3607530;-84
2023/01/30 03:58:42;;;;;;;;;38.00;32.00;;;;;6.67;64.39;102429.50;1993547;28;3605480;-85
2023/01/30 04:00:06;;;;;;;;;29.33;25.67;;;;;6.69;64.38;102425.16;2008026;28;3600274;-85
2023/01/30 04:01:17;;;;;;;;;37.00;34.00;;;;;6.67;64.47;102426.03;2007730;28;2845427;-84
2023/01/30 04:02:31;;;;;;;;;35.33;31.67;;;;;6.66;64.14;102419.06;1982847;28;3601229;-85
2023/01/30 04:03:43;;;;;;;;;36.33;31.00;;;;;6.65;64.26;102412.94;1969997;28;3607499;-84
2023/01/30 04:04:55;;;;;;;;;45.00;35.20;;;;;6.69;64.34;102425.16;1999234;28;3599190;-85
2023/01/30 04:06:07;;;;;;;;;42.20;33.40;;;;;6.68;64.39;102428.66;1992356;28;3580408;-85
2023/01/30 04:07:31;;;;;;;;;35.20;31.60;;;;;6.67;64.46;102415.59;1982186;28;3595000;-85
2023/01/30 04:08:41;;;;;;;;;36.00;30.00;;;;;6.67;64.37;102420.81;1975688;28;2860109;-85
2023/01/30 04:09:59;;;;;;;;;43.60;35.40;;;;;6.64;64.24;102416.44;1990716;28;3584607;-85
2023/01/30 04:11:09;;;;;;;;;42.00;32.50;;;;;6.66;64.22;102411.22;1994397;28;2878408;-85
2023/01/30 04:12:22;;;;;;;;;40.40;34.00;;;;;6.66;64.42;102409.47;1992542;28;3576230;-85
2023/01/30 04:13:33;;;;;;;;;34.67;32.00;;;;;6.66;64.55;102404.25;2008107;28;3589144;-84
2023/01/30 04:14:45;;;;;;;;;40.80;31.20;;;;;6.65;64.39;102394.66;1999899;28;3624173;-84
2023/01/30 04:16:20;;;;;;;;;37.00;32.20;;;;;6.67;64.78;102397.28;1995674;28;3601229;-85
2023/01/30 04:17:31;;;;;;;;;34.67;28.33;;;;;6.64;64.49;102396.38;1985637;28;3601269;-85
2023/01/30 04:18:43;;;;;;;;;35.00;29.33;;;;;6.63;64.39;102398.97;1997298;28;3600318;-85
2023/01/30 04:19:55;;;;;;;;;39.40;31.00;;;;;6.64;64.25;102398.13;1983579;28;3624161;-84
2023/01/30 04:21:07;;;;;;;;;35.60;31.00;;;;;6.62;64.16;102403.31;2004403;28;3604401;-85
2023/01/30 04:22:19;;;;;;;;;46.80;36.00;;;;;6.63;64.62;102399.88;1992651;28;3585619;-85
2023/01/30 04:23:31;;;;;;;;;35.40;31.00;;;;;6.62;64.28;102397.22;2014541;28;3599138;-85
2023/01/30 04:24:43;;;;;;;;;42.00;34.60;;;;;6.64;64.29;102405.97;1998840;28;3598160;-85
2023/01/30 04:25:58;;;;;;;;;35.60;32.80;;;;;6.63;64.59;102404.22;2001829;28;3581831;-85
2023/01/30 04:27:09;;;;;;;;;36.00;27.67;;;;;6.63;64.73;102409.44;1998247;28;3607519;-85
2023/01/30 04:28:21;;;;;;;;;37.40;32.00;;;;;6.62;64.76;102398.09;2003758;28;3593945;-85
2023/01/30 04:29:34;;;;;;;;;40.80;31.00;;;;;6.59;64.25;102399.81;1998310;28;3618945;-85
2023/01/30 04:30:45;;;;;;;;;37.60;32.20;;;;;6.57;64.11;102399.78;1982807;28;3608569;-85
2023/01/30 04:31:57;;;;;;;;;37.20;33.00;;;;;6.58;64.37;102406.78;2003867;28;3583576;-85
2023/01/30 04:33:09;;;;;;;;;38.60;32.60;;;;;6.59;64.36;102403.28;2026322;28;3601592;-85
2023/01/30 04:34:21;;;;;;;;;43.80;33.80;;;;;6.58;64.20;102411.13;2003048;28;3615305;-85
2023/01/30 04:35:33;;;;;;;;;45.20;35.40;;;;;6.59;64.25;102405.03;2005429;28;3575264;-85
2023/01/30 04:36:45;;;;;;;;;33.80;33.00;;;;;6.56;64.17;102413.72;2027145;28;3588777;-85
2023/01/30 04:37:57;;;;;;;;;34.80;29.60;;;;;6.52;64.46;102394.50;1998826;28;3590865;-85
2023/01/30 04:39:09;;;;;;;;;41.00;32.40;;;;;6.56;64.62;102399.78;2002027;28;3627273;-85
2023/01/30 04:40:21;;;;;;;;;36.67;29.67;;;;;6.51;64.43;102405.84;2000382;28;3602350;-85
2023/01/30 04:41:35;;;;;;;;;41.00;34.60;;;;;6.53;64.79;102405.84;2000537;28;3590072;-85
2023/01/30 04:42:46;;;;;;;;;33.00;28.00;;;;;6.53;64.79;102393.66;1976971;28;2870033;-85
2023/01/30 04:43:58;;;;;;;;;47.40;35.80;;;;;6.53;64.63;102388.44;1997075;28;3600284;-84
2023/01/30 04:45:10;;;;;;;;;36.00;32.00;;;;;6.54;64.64;102389.31;1993556;28;3597102;-84
2023/01/30 04:46:22;;;;;;;;;38.60;32.00;;;;;6.57;64.70;102388.47;2020092;28;3613721;-84
2023/01/30 04:47:34;;;;;;;;;38.40;32.60;;;;;6.55;64.68;102384.94;1997312;28;3605908;-84
2023/01/30 04:48:46;;;;;;;;;35.40;31.60;;;;;6.54;64.78;102378.88;1997514;28;3601260;-85
2023/01/30 04:49:58;;;;;;;;;42.60;35.20;;;;;6.55;65.26;102385.84;2002962;28;3578350;-84
2023/01/30 04:51:10;;;;;;;;;34.60;29.80;;;;;6.58;64.82;102390.22;2024826;28;3608513;-85
2023/01/30 04:52:21;;;;;;;;;37.20;34.00;;;;;6.56;64.69;102386.72;1983266;28;3582474;-84
2023/01/30 04:53:33;;;;;;;;;34.20;26.40;;;;;6.57;64.72;102383.25;2020510;28;3606454;-84
2023/01/30 04:54:45;;;;;;;;;42.67;33.00;;;;;6.57;64.93;102386.72;1996968;28;3592946;-84
2023/01/30 04:55:57;;;;;;;;;43.40;34.40;;;;;6.58;64.73;102391.09;2002358;28;3608965;-84
2023/01/30 04:57:09;;;;;;;;;36.33;32.67;;;;;6.60;65.19;102391.09;1999514;28;3612734;-85
2023/01/30 04:58:22;;;;;;;;;40.00;34.80;;;;;6.59;64.82;102382.38;1989151;28;3584563;-85
2023/01/30 04:59:33;;;;;;;;;40.40;33.80;;;;;6.62;64.87;102392.88;1988533;28;3565892;-84
2023/01/30 05:00:46;;;;;;;;;47.80;35.60;;;;;6.61;65.03;102395.47;2035539;28;3582492;-84
2023/01/30 05:01:57;;;;;;;;;46.50;34.00;;;;;6.61;64.46;102391.16;1994273;28;2846090;-84
2023/01/30 05:03:09;;;;;;;;;41.20;33.00;;;;;6.63;65.19;102398.97;2001599;28;3608519;-84
2023/01/30 05:04:21;;;;;;;;;42.00;34.40;;;;;6.62;64.65;102398.09;2002582;28;3573144;-84
2023/01/30 05:05:33;;;;;;;;;37.80;31.60;;;;;6.60;64.44;102391.09;2027071;28;3604351;-85
2023/01/30 05:06:45;;;;;;;;;33.40;30.20;;;;;6.59;64.50;102391.97;2001910;28;3597103;-84
2023/01/30 05:07:57;;;;;;;;;40.40;33.20;;;;;6.63;64.93;102393.75;2002144;28;3600222;-84
2023/01/30 05:09:09;;;;;;;;;37.00;32.80;;;;;6.63;64.68;102391.16;1997266;28;3579378;-84
2023/01/30 05:10:21;;;;;;;;;35.00;28.00;;;;;6.63;64.42;102388.53;2016754;28;3595058;-84
2023/01/30 05:11:33;;;;;;;;;35.20;30.40;;;;;6.63;64.69;102397.25;2019841;28;3612690;-84
2023/01/30 05:12:45;;;;;;;;;39.20;31.60;;;;;6.64;64.75;102400.75;1996686;28;3630431;-85
2023/01/30 05:13:57;;;;;;;;;39.00;33.40;;;;;6.66;65.17;102398.13;2012290;28;3592956;-85
2023/01/30 05:15:10;;;;;;;;;34.33;27.33;;;;;6.65;64.63;102386.81;2023371;28;3592944;-85
2023/01/30 05:16:21;;;;;;;;;37.50;31.00;;;;;6.67;64.80;102397.28;1991583;28;2851313;-85
2023/01/30 05:17:33;;;;;;;;;46.00;36.00;;;;;6.68;65.02;102393.81;1985121;28;2840893;-85
2023/01/30 05:18:44;;;;;;;;;36.50;33.00;;;;;6.65;64.80;102386.81;2015760;28;2854416;-85
2023/01/30 05:19:56;;;;;;;;;30.67;28.33;;;;;6.68;65.24;102392.06;1990387;28;3591938;-85
2023/01/30 05:21:12;;;;;;;;;42.00;32.40;;;;;6.69;65.15;102385.97;2007934;28;3628392;-85
2023/01/30 05:22:24;;;;;;;;;42.33;32.00;;;;;6.69;65.06;102388.59;1992341;28;3617012;-84
2023/01/30 05:23:36;;;;;;;;;46.40;33.00;;;;;6.69;65.07;102391.19;2009141;28;3599202;-85
2023/01/30 05:24:48;;;;;;;;;32.00;27.40;;;;;6.67;65.46;102389.47;2003633;28;3596061;-85
2023/01/30 05:26:00;;;;;;;;;40.40;33.20;;;;;6.69;65.29;102393.81;2011050;28;3599142;-85
2023/01/30 05:27:12;;;;;;;;;43.67;34.33;;;;;6.69;65.71;102393.81;1980566;28;3596108;-85
2023/01/30 05:28:24;;;;;;;;;44.60;34.20;;;;;6.71;65.63;102392.13;2003633;28;3579363;-84
2023/01/30 05:29:36;;;;;;;;;30.33;27.00;;;;;6.74;65.41;102393.88;2017722;28;3583648;-85
2023/01/30 05:30:48;;;;;;;;;42.40;32.40;;;;;6.73;65.09;102393.00;2034183;28;3597108;-85
2023/01/30 05:32:00;;;;;;;;;36.60;28.60;;;;;6.74;65.41;102393.88;2010502;28;3600187;-84
2023/01/30 05:33:12;;;;;;;;;41.60;34.60;;;;;6.73;65.47;102387.78;2001130;28;3586658;-85
2023/01/30 05:34:24;;;;;;;;;38.00;32.20;;;;;6.74;65.68;102372.97;2004054;28;3594990;-84
2023/01/30 05:35:36;;;;;;;;;32.67;31.33;;;;;6.74;65.44;102389.50;1998907;28;3586702;-85
2023/01/30 05:36:48;;;;;;;;;43.60;35.20;;;;;6.73;65.11;102384.28;2025794;28;3586689;-85
2023/01/30 05:38:01;;;;;;;;;38.40;32.80;;;;;6.73;64.90;102386.88;2017267;28;3585605;-85
2023/01/30 05:39:11;;;;;;;;;36.00;28.50;;;;;6.74;65.53;102394.72;2014015;28;2862729;-84
2023/01/30 05:40:23;;;;;;;;;35.80;32.60;;;;;6.75;65.30;102391.28;1993863;28;3591863;-84
2023/01/30 05:41:35;;;;;;;;;40.20;33.20;;;;;6.74;65.45;102386.91;2003161;28;3611677;-84
2023/01/30 05:42:47;;;;;;;;;41.40;34.80;;;;;6.75;65.96;102388.66;2009317;28;3578735;-84
2023/01/30 05:43:59;;;;;;;;;33.60;30.80;;;;;6.78;65.24;102395.66;2028547;28;3600195;-84